createdAt,value
2016-11-27T00:00:23.377Z,1010.89
2016-11-27T00:01:02.450Z,1010.85
2016-11-27T00:01:41.274Z,1010.84
2016-11-27T00:02:20.100Z,1010.87
2016-11-27T00:02:58.919Z,1010.85
2016-11-27T00:03:37.745Z,1010.88
2016-11-27T00:04:16.568Z,1010.83
2016-11-27T00:04:55.407Z,1010.84
2016-11-27T00:05:34.233Z,1010.9
2016-11-27T00:06:13.062Z,1010.87
2016-11-27T00:06:51.883Z,1010.87
2016-11-27T00:07:30.706Z,1010.86
2016-11-27T00:08:09.533Z,1010.87
2016-11-27T00:08:48.355Z,1010.9
2016-11-27T00:09:27.180Z,1010.88
2016-11-27T00:10:06.003Z,1010.87
2016-11-27T00:10:44.825Z,1010.89
2016-11-27T00:11:23.645Z,1010.9
2016-11-27T00:12:02.464Z,1010.91
2016-11-27T00:12:41.288Z,1010.9
2016-11-27T00:13:20.111Z,1010.91
2016-11-27T00:13:58.940Z,1010.92
2016-11-27T00:14:37.767Z,1010.9
2016-11-27T00:15:16.589Z,1010.9
2016-11-27T00:15:55.415Z,1010.86
2016-11-27T00:16:34.238Z,1010.88
2016-11-27T00:17:13.060Z,1010.89
2016-11-27T00:17:51.881Z,1010.9
2016-11-27T00:18:30.713Z,1010.86
2016-11-27T00:19:09.539Z,1010.86
2016-11-27T00:19:48.360Z,1010.87
2016-11-27T00:20:27.179Z,1010.84
2016-11-27T00:21:06.009Z,1010.81
2016-11-27T00:21:44.828Z,1010.88
2016-11-27T00:22:23.653Z,1010.86
2016-11-27T00:23:02.481Z,1010.81
2016-11-27T00:23:41.313Z,1010.83
2016-11-27T00:24:20.132Z,1010.82
2016-11-27T00:24:58.952Z,1010.82
2016-11-27T00:25:38.128Z,1010.8
2016-11-27T00:26:16.951Z,1010.81
2016-11-27T00:26:55.773Z,1010.81
2016-11-27T00:27:34.592Z,1010.78
2016-11-27T00:28:13.416Z,1010.8
2016-11-27T00:28:52.236Z,1010.78
2016-11-27T00:29:31.057Z,1010.79
2016-11-27T00:30:09.884Z,1010.76
2016-11-27T00:30:48.703Z,1010.75
2016-11-27T00:31:27.531Z,1010.74
2016-11-27T00:32:06.357Z,1010.68
2016-11-27T00:32:45.179Z,1010.77
2016-11-27T00:33:24.006Z,1010.68
2016-11-27T00:34:02.827Z,1010.72
2016-11-27T00:34:41.647Z,1010.73
2016-11-27T00:35:20.463Z,1010.74
2016-11-27T00:35:59.285Z,1010.75
2016-11-27T00:36:38.110Z,1010.74
2016-11-27T00:37:16.934Z,1010.75
2016-11-27T00:37:55.756Z,1010.74
2016-11-27T00:38:34.581Z,1010.73
2016-11-27T00:39:13.404Z,1010.72
2016-11-27T00:39:52.224Z,1010.72
2016-11-27T00:40:31.045Z,1010.7
2016-11-27T00:41:09.874Z,1010.76
2016-11-27T00:41:49.055Z,1010.74
2016-11-27T00:42:27.890Z,1010.73
2016-11-27T00:43:06.710Z,1010.73
2016-11-27T00:43:45.564Z,1010.73
2016-11-27T00:44:24.383Z,1010.75
2016-11-27T00:45:03.203Z,1010.7
2016-11-27T00:45:42.031Z,1010.74
2016-11-27T00:46:20.853Z,1010.76
2016-11-27T00:46:59.682Z,1010.69
2016-11-27T00:47:38.511Z,1010.74
2016-11-27T00:48:17.340Z,1010.79
2016-11-27T00:48:56.172Z,1010.8
2016-11-27T00:49:34.993Z,1010.76
2016-11-27T00:50:13.818Z,1010.76
2016-11-27T00:50:52.643Z,1010.74
2016-11-27T00:51:31.468Z,1010.75
2016-11-27T00:52:10.296Z,1010.73
2016-11-27T00:52:49.128Z,1010.74
2016-11-27T00:53:27.951Z,1010.74
2016-11-27T00:54:06.780Z,1010.71
2016-11-27T00:54:45.603Z,1010.7
2016-11-27T00:55:24.425Z,1010.65
2016-11-27T00:56:03.249Z,1010.7
2016-11-27T00:56:42.072Z,1010.68
2016-11-27T00:57:20.891Z,1010.63
2016-11-27T00:57:59.719Z,1010.66
2016-11-27T00:58:38.544Z,1010.65
2016-11-27T00:59:17.367Z,1010.69
2016-11-27T00:59:56.191Z,1010.71
2016-11-27T01:00:35.012Z,1010.67
2016-11-27T01:01:13.835Z,1010.7
2016-11-27T01:01:52.658Z,1010.72
2016-11-27T01:02:31.481Z,1010.69
2016-11-27T01:03:10.310Z,1010.74
2016-11-27T01:03:49.132Z,1010.7
2016-11-27T01:04:27.957Z,1010.72
2016-11-27T01:05:06.781Z,1010.7
2016-11-27T01:05:45.633Z,1010.63
2016-11-27T01:06:24.456Z,1010.66
2016-11-27T01:07:03.277Z,1010.69
2016-11-27T01:07:42.100Z,1010.72
2016-11-27T01:08:20.919Z,1010.75
2016-11-27T01:08:59.739Z,1010.69
2016-11-27T01:09:38.573Z,1010.71
2016-11-27T01:10:17.398Z,1010.74
2016-11-27T01:10:56.222Z,1010.71
2016-11-27T01:11:35.046Z,1010.76
2016-11-27T01:12:13.901Z,1010.72
2016-11-27T01:12:52.722Z,1010.73
2016-11-27T01:13:31.543Z,1010.75
2016-11-27T01:14:10.363Z,1010.74
2016-11-27T01:14:49.187Z,1010.73
2016-11-27T01:15:28.037Z,1010.72
2016-11-27T01:16:06.861Z,1010.75
2016-11-27T01:16:45.683Z,1010.74
2016-11-27T01:17:24.507Z,1010.78
2016-11-27T01:18:03.328Z,1010.76
2016-11-27T01:18:42.151Z,1010.76
2016-11-27T01:19:20.973Z,1010.77
2016-11-27T01:19:59.798Z,1010.76
2016-11-27T01:20:38.629Z,1010.78
2016-11-27T01:21:17.450Z,1010.83
2016-11-27T01:21:56.271Z,1010.83
2016-11-27T01:22:35.095Z,1010.8
2016-11-27T01:23:13.921Z,1010.81
2016-11-27T01:23:52.746Z,1010.84
2016-11-27T01:24:31.569Z,1010.88
2016-11-27T01:25:10.395Z,1010.9
2016-11-27T01:25:49.214Z,1010.88
2016-11-27T01:26:28.048Z,1010.83
2016-11-27T01:27:06.880Z,1010.91
2016-11-27T01:27:45.702Z,1010.89
2016-11-27T01:28:24.523Z,1010.84
2016-11-27T01:29:03.381Z,1010.9
2016-11-27T01:29:42.207Z,1010.88
2016-11-27T01:30:21.031Z,1010.91
2016-11-27T01:30:59.852Z,1010.91
2016-11-27T01:31:38.677Z,1010.89
2016-11-27T01:32:17.519Z,1010.9
2016-11-27T01:32:56.342Z,1010.94
2016-11-27T01:33:35.168Z,1010.93
2016-11-27T01:34:14.333Z,1010.9
2016-11-27T01:34:53.157Z,1010.89
2016-11-27T01:35:31.977Z,1010.92
2016-11-27T01:36:10.801Z,1010.89
2016-11-27T01:36:49.630Z,1010.92
2016-11-27T01:37:28.459Z,1010.9
2016-11-27T01:38:07.283Z,1010.94
2016-11-27T01:38:46.109Z,1010.91
2016-11-27T01:39:24.930Z,1010.95
2016-11-27T01:40:03.758Z,1010.91
2016-11-27T01:40:42.584Z,1010.92
2016-11-27T01:41:21.438Z,1010.89
2016-11-27T01:42:00.265Z,1010.93
2016-11-27T01:42:39.093Z,1010.95
2016-11-27T01:43:17.922Z,1010.96
2016-11-27T01:43:56.749Z,1010.98
2016-11-27T01:44:35.574Z,1010.99
2016-11-27T01:45:14.397Z,1011
2016-11-27T01:45:53.583Z,1010.99
2016-11-27T01:46:32.410Z,1011
2016-11-27T01:47:11.235Z,1011.04
2016-11-27T01:47:50.063Z,1011.05
2016-11-27T01:48:28.884Z,1011.04
2016-11-27T01:49:07.704Z,1011.05
2016-11-27T01:49:46.528Z,1011.06
2016-11-27T01:50:25.353Z,1011.04
2016-11-27T01:51:04.171Z,1011.11
2016-11-27T01:51:42.999Z,1011.11
2016-11-27T01:52:21.819Z,1011.1
2016-11-27T01:53:00.640Z,1011.09
2016-11-27T01:53:39.463Z,1011.16
2016-11-27T01:54:18.285Z,1011.16
2016-11-27T01:54:57.107Z,1011.14
2016-11-27T01:55:35.944Z,1011.17
2016-11-27T01:56:14.767Z,1011.17
2016-11-27T01:56:53.602Z,1011.19
2016-11-27T01:57:32.428Z,1011.18
2016-11-27T01:58:11.261Z,1011.14
2016-11-27T01:58:50.118Z,1011.14
2016-11-27T01:59:28.943Z,1011.16
2016-11-27T02:00:07.768Z,1011.13
2016-11-27T02:00:46.589Z,1011.17
2016-11-27T02:01:25.419Z,1011.2
2016-11-27T02:02:04.242Z,1011.18
2016-11-27T02:02:43.065Z,1011.18
2016-11-27T02:03:21.883Z,1011.2
2016-11-27T02:04:00.706Z,1011.24
2016-11-27T02:04:39.531Z,1011.22
2016-11-27T02:05:18.384Z,1011.23
2016-11-27T02:05:57.207Z,1011.23
2016-11-27T02:06:36.038Z,1011.27
2016-11-27T02:07:14.890Z,1011.26
2016-11-27T02:07:53.720Z,1011.27
2016-11-27T02:08:32.546Z,1011.21
2016-11-27T02:09:11.371Z,1011.22
2016-11-27T02:09:50.552Z,1011.21
2016-11-27T02:10:29.376Z,1011.2
2016-11-27T02:11:08.200Z,1011.22
2016-11-27T02:11:47.022Z,1011.17
2016-11-27T02:12:25.851Z,1011.11
2016-11-27T02:13:04.679Z,1011.16
2016-11-27T02:13:43.501Z,1011.09
2016-11-27T02:14:22.326Z,1011.05
2016-11-27T02:15:01.148Z,1011.07
2016-11-27T02:15:40.007Z,1011.09
2016-11-27T02:16:18.832Z,1011.08
2016-11-27T02:16:57.663Z,1011.06
2016-11-27T02:17:36.487Z,1011
2016-11-27T02:18:15.312Z,1011.03
2016-11-27T02:18:54.490Z,1011.02
2016-11-27T02:19:33.312Z,1011.03
2016-11-27T02:20:12.136Z,1011.02
2016-11-27T02:20:50.963Z,1011.07
2016-11-27T02:21:29.784Z,1011.03
2016-11-27T02:22:08.609Z,1011.03
2016-11-27T02:22:47.432Z,1011.06
2016-11-27T02:23:26.253Z,1011.09
2016-11-27T02:24:05.075Z,1011.06
2016-11-27T02:24:43.902Z,1011.07
2016-11-27T02:25:22.724Z,1011.06
2016-11-27T02:26:01.551Z,1011.03
2016-11-27T02:26:40.379Z,1011.03
2016-11-27T02:27:19.201Z,1011.04
2016-11-27T02:27:58.021Z,1011.04
2016-11-27T02:28:36.850Z,1010.99
2016-11-27T02:29:15.674Z,1010.99
2016-11-27T02:29:54.503Z,1011
2016-11-27T02:30:33.331Z,1010.99
2016-11-27T02:31:12.146Z,1010.97
2016-11-27T02:31:51.307Z,1011.03
2016-11-27T02:32:30.085Z,1011.05
2016-11-27T02:33:08.862Z,1011.02
2016-11-27T02:33:47.994Z,1011.03
2016-11-27T02:34:26.773Z,1011.05
2016-11-27T02:35:05.897Z,1011.12
2016-11-27T02:35:44.676Z,1011.09
2016-11-27T02:36:23.458Z,1011.07
2016-11-27T02:37:02.235Z,1011.04
2016-11-27T02:37:41.018Z,1011.02
2016-11-27T02:38:19.860Z,1011.04
2016-11-27T02:38:58.637Z,1011.02
2016-11-27T02:39:37.412Z,1010.99
2016-11-27T02:40:16.191Z,1010.93
2016-11-27T02:40:54.966Z,1010.96
2016-11-27T02:41:33.742Z,1010.96
2016-11-27T02:42:12.520Z,1010.97
2016-11-27T02:42:51.298Z,1010.97
2016-11-27T02:43:30.079Z,1010.99
2016-11-27T02:44:08.892Z,1011
2016-11-27T02:44:47.670Z,1011.03
2016-11-27T02:45:26.444Z,1010.99
2016-11-27T02:46:05.571Z,1011.06
2016-11-27T02:46:44.342Z,1011.06
2016-11-27T02:47:23.115Z,1011.03
2016-11-27T02:48:01.886Z,1011.05
2016-11-27T02:48:40.658Z,1011.05
2016-11-27T02:49:19.436Z,1011.01
2016-11-27T02:49:58.237Z,1011.05
2016-11-27T02:50:37.014Z,1011.03
2016-11-27T02:51:15.789Z,1011.05
2016-11-27T02:51:54.571Z,1011.01
2016-11-27T02:52:33.344Z,1010.99
2016-11-27T02:53:12.123Z,1010.97
2016-11-27T02:53:50.893Z,1010.94
2016-11-27T02:54:29.674Z,1010.93
2016-11-27T02:55:08.450Z,1010.97
2016-11-27T02:55:47.579Z,1010.98
2016-11-27T02:56:26.352Z,1010.98
2016-11-27T02:57:05.134Z,1010.99
2016-11-27T02:57:43.908Z,1011
2016-11-27T02:58:22.678Z,1010.97
2016-11-27T02:59:01.450Z,1010.96
2016-11-27T02:59:40.224Z,1010.99
2016-11-27T03:00:18.998Z,1011.03
2016-11-27T03:00:57.772Z,1010.98
2016-11-27T03:01:36.552Z,1011.03
2016-11-27T03:02:15.332Z,1011.01
2016-11-27T03:02:54.113Z,1011
2016-11-27T03:03:32.893Z,1011.03
2016-11-27T03:04:11.664Z,1011.04
2016-11-27T03:04:50.436Z,1011.02
2016-11-27T03:05:29.210Z,1011.11
2016-11-27T03:06:07.989Z,1011.09
2016-11-27T03:06:46.763Z,1011.11
2016-11-27T03:07:25.538Z,1011.13
2016-11-27T03:08:04.312Z,1011.17
2016-11-27T03:08:43.091Z,1011.15
2016-11-27T03:09:21.878Z,1011.14
2016-11-27T03:10:00.657Z,1011.12
2016-11-27T03:10:39.438Z,1011.1
2016-11-27T03:11:18.226Z,1011.08
2016-11-27T03:11:57.004Z,1011.09
2016-11-27T03:12:35.783Z,1011.12
2016-11-27T03:13:14.559Z,1011.1
2016-11-27T03:13:53.329Z,1011.09
2016-11-27T03:14:32.112Z,1011.08
2016-11-27T03:15:10.888Z,1011.1
2016-11-27T03:15:49.676Z,1011.1
2016-11-27T03:16:28.460Z,1011.16
2016-11-27T03:17:07.231Z,1011.13
2016-11-27T03:17:46.005Z,1011.09
2016-11-27T03:18:24.813Z,1011.14
2016-11-27T03:19:03.585Z,1011.13
2016-11-27T03:19:42.362Z,1011.14
2016-11-27T03:20:21.137Z,1011.12
2016-11-27T03:20:59.909Z,1011.08
2016-11-27T03:21:38.679Z,1011.09
2016-11-27T03:22:17.453Z,1011.05
2016-11-27T03:22:56.224Z,1011.05
2016-11-27T03:23:35.000Z,1011.03
2016-11-27T03:24:13.772Z,1011.04
2016-11-27T03:24:52.583Z,1011.07
2016-11-27T03:25:31.359Z,1011.06
2016-11-27T03:26:10.129Z,1011.09
2016-11-27T03:26:48.906Z,1011.07
2016-11-27T03:27:27.676Z,1011.06
2016-11-27T03:28:06.458Z,1011.06
2016-11-27T03:28:45.235Z,1011.11
2016-11-27T03:29:24.008Z,1011.12
2016-11-27T03:30:02.781Z,1011.13
2016-11-27T03:30:41.909Z,1011.1
2016-11-27T03:31:20.687Z,1011.09
2016-11-27T03:31:59.460Z,1011.13
2016-11-27T03:32:38.232Z,1011.08
2016-11-27T03:33:17.007Z,1011.11
2016-11-27T03:33:55.780Z,1011.11
2016-11-27T03:34:34.556Z,1011.1
2016-11-27T03:35:13.331Z,1011.15
2016-11-27T03:35:52.107Z,1011.14
2016-11-27T03:36:30.879Z,1011.17
2016-11-27T03:37:09.657Z,1011.18
2016-11-27T03:37:48.431Z,1011.2
2016-11-27T03:38:27.560Z,1011.24
2016-11-27T03:39:06.336Z,1011.19
2016-11-27T03:39:45.129Z,1011.18
2016-11-27T03:40:23.908Z,1011.19
2016-11-27T03:41:02.683Z,1011.18
2016-11-27T03:41:41.469Z,1011.19
2016-11-27T03:42:20.246Z,1011.2
2016-11-27T03:42:59.022Z,1011.21
2016-11-27T03:43:37.800Z,1011.18
2016-11-27T03:44:16.574Z,1011.21
2016-11-27T03:44:55.345Z,1011.18
2016-11-27T03:45:34.127Z,1011.17
2016-11-27T03:46:13.259Z,1011.13
2016-11-27T03:46:52.036Z,1011.15
2016-11-27T03:47:30.827Z,1011.09
2016-11-27T03:48:09.956Z,1011.12
2016-11-27T03:48:48.735Z,1011.09
2016-11-27T03:49:27.511Z,1011.11
2016-11-27T03:50:06.285Z,1011.1
2016-11-27T03:50:45.082Z,1011.14
2016-11-27T03:51:23.864Z,1011.12
2016-11-27T03:52:02.644Z,1011.09
2016-11-27T03:52:41.425Z,1011.15
2016-11-27T03:53:20.201Z,1011.12
2016-11-27T03:53:58.986Z,1011.08
2016-11-27T03:54:37.795Z,1011.08
2016-11-27T03:55:16.567Z,1011.04
2016-11-27T03:55:55.343Z,1011.05
2016-11-27T03:56:34.127Z,1011.03
2016-11-27T03:57:12.902Z,1011.04
2016-11-27T03:57:51.676Z,1011.05
2016-11-27T03:58:30.480Z,1011.01
2016-11-27T03:59:09.258Z,1011.03
2016-11-27T03:59:48.042Z,1011.06
2016-11-27T04:00:26.847Z,1011.05
2016-11-27T04:01:05.629Z,1011.05
2016-11-27T04:01:44.406Z,1011.05
2016-11-27T04:02:23.181Z,1011.05
2016-11-27T04:03:01.958Z,1011.06
2016-11-27T04:03:40.736Z,1011.03
2016-11-27T04:04:19.517Z,1010.98
2016-11-27T04:04:58.293Z,1011
2016-11-27T04:05:37.070Z,1011
2016-11-27T04:06:15.851Z,1010.97
2016-11-27T04:06:54.629Z,1010.93
2016-11-27T04:07:33.412Z,1010.96
2016-11-27T04:08:12.187Z,1010.97
2016-11-27T04:08:50.959Z,1010.95
2016-11-27T04:09:29.741Z,1010.99
2016-11-27T04:10:08.515Z,1011.02
2016-11-27T04:10:47.320Z,1011.06
2016-11-27T04:11:26.095Z,1011.05
2016-11-27T04:12:05.226Z,1011.03
2016-11-27T04:12:44.003Z,1011.05
2016-11-27T04:13:22.784Z,1011.05
2016-11-27T04:14:01.566Z,1011.05
2016-11-27T04:14:40.343Z,1011.12
2016-11-27T04:15:19.120Z,1011.11
2016-11-27T04:15:57.899Z,1011.08
2016-11-27T04:16:36.697Z,1011.06
2016-11-27T04:17:15.473Z,1011.08
2016-11-27T04:17:54.249Z,1011.05
2016-11-27T04:18:33.023Z,1011.07
2016-11-27T04:19:11.832Z,1011.1
2016-11-27T04:19:50.610Z,1011.08
2016-11-27T04:20:29.388Z,1011.06
2016-11-27T04:21:08.163Z,1011.05
2016-11-27T04:21:46.970Z,1011.03
2016-11-27T04:22:25.742Z,1011.06
2016-11-27T04:23:04.518Z,1011.11
2016-11-27T04:23:43.305Z,1011.14
2016-11-27T04:24:22.078Z,1011.11
2016-11-27T04:25:00.859Z,1011.12
2016-11-27T04:25:39.641Z,1011.13
2016-11-27T04:26:18.416Z,1011.17
2016-11-27T04:26:57.195Z,1011.18
2016-11-27T04:27:35.971Z,1011.19
2016-11-27T04:28:14.746Z,1011.19
2016-11-27T04:28:53.521Z,1011.21
2016-11-27T04:29:32.664Z,1011.22
2016-11-27T04:30:11.473Z,1011.2
2016-11-27T04:30:50.248Z,1011.18
2016-11-27T04:31:29.021Z,1011.15
2016-11-27T04:32:07.807Z,1011.1
2016-11-27T04:32:46.591Z,1011.1
2016-11-27T04:33:25.387Z,1011.11
2016-11-27T04:34:04.157Z,1011.07
2016-11-27T04:34:42.935Z,1011.09
2016-11-27T04:35:21.720Z,1011.07
2016-11-27T04:36:00.524Z,1011.05
2016-11-27T04:36:39.301Z,1011.11
2016-11-27T04:37:18.075Z,1011.11
2016-11-27T04:37:56.852Z,1011.11
2016-11-27T04:38:35.631Z,1011.12
2016-11-27T04:39:14.758Z,1011.08
2016-11-27T04:39:53.530Z,1011.11
2016-11-27T04:40:32.309Z,1011.07
2016-11-27T04:41:11.082Z,1011.06
2016-11-27T04:41:49.863Z,1011.04
2016-11-27T04:42:28.639Z,1011.06
2016-11-27T04:43:07.412Z,1011.06
2016-11-27T04:43:46.186Z,1011.06
2016-11-27T04:44:25.318Z,1011.07
2016-11-27T04:45:04.095Z,1011.08
2016-11-27T04:45:42.878Z,1011.14
2016-11-27T04:46:21.694Z,1011.11
2016-11-27T04:47:00.471Z,1011.15
2016-11-27T04:47:39.270Z,1011.15
2016-11-27T04:48:18.042Z,1011.14
2016-11-27T04:48:56.812Z,1011.16
2016-11-27T04:49:35.583Z,1011.15
2016-11-27T04:50:14.367Z,1011.16
2016-11-27T04:50:53.137Z,1011.13
2016-11-27T04:51:31.907Z,1011.15
2016-11-27T04:52:10.681Z,1011.16
2016-11-27T04:52:49.455Z,1011.14
2016-11-27T04:53:28.234Z,1011.15
2016-11-27T04:54:07.015Z,1011.11
2016-11-27T04:54:45.790Z,1011.15
2016-11-27T04:55:24.560Z,1011.13
2016-11-27T04:56:03.335Z,1011.16
2016-11-27T04:56:42.109Z,1011.21
2016-11-27T04:57:20.887Z,1011.19
2016-11-27T04:57:59.667Z,1011.21
2016-11-27T04:58:38.451Z,1011.22
2016-11-27T04:59:17.224Z,1011.21
2016-11-27T04:59:56.027Z,1011.17
2016-11-27T05:00:34.802Z,1011.24
2016-11-27T05:01:13.584Z,1011.21
2016-11-27T05:01:52.362Z,1011.22
2016-11-27T05:02:31.138Z,1011.23
2016-11-27T05:03:09.911Z,1011.22
2016-11-27T05:03:48.692Z,1011.15
2016-11-27T05:04:27.466Z,1011.18
2016-11-27T05:05:06.269Z,1011.16
2016-11-27T05:05:45.043Z,1011.17
2016-11-27T05:06:23.817Z,1011.18
2016-11-27T05:07:02.591Z,1011.12
2016-11-27T05:07:41.367Z,1011.14
2016-11-27T05:08:20.140Z,1011.13
2016-11-27T05:08:58.920Z,1011.16
2016-11-27T05:09:37.698Z,1011.1
2016-11-27T05:10:16.474Z,1011.12
2016-11-27T05:10:55.246Z,1011.14
2016-11-27T05:11:34.018Z,1011.17
2016-11-27T05:12:12.800Z,1011.19
2016-11-27T05:12:51.586Z,1011.22
2016-11-27T05:13:30.365Z,1011.22
2016-11-27T05:14:09.169Z,1011.21
2016-11-27T05:14:47.970Z,1011.2
2016-11-27T05:15:26.746Z,1011.23
2016-11-27T05:16:06.226Z,1011.21
2016-11-27T05:16:45.006Z,1011.17
2016-11-27T05:17:23.814Z,1011.17
2016-11-27T05:18:02.589Z,1011.18
2016-11-27T05:18:41.367Z,1011.17
2016-11-27T05:19:20.147Z,1011.16
2016-11-27T05:19:58.912Z,1011.18
2016-11-27T05:20:37.689Z,1011.18
2016-11-27T05:21:16.465Z,1011.15
2016-11-27T05:21:55.237Z,1011.18
2016-11-27T05:22:34.012Z,1011.22
2016-11-27T05:23:12.789Z,1011.25
2016-11-27T05:23:51.616Z,1011.28
2016-11-27T05:24:30.395Z,1011.3
2016-11-27T05:25:09.175Z,1011.31
2016-11-27T05:25:48.306Z,1011.33
2016-11-27T05:26:27.114Z,1011.3
2016-11-27T05:27:05.891Z,1011.25
2016-11-27T05:27:44.670Z,1011.26
2016-11-27T05:28:23.461Z,1011.25
2016-11-27T05:29:02.238Z,1011.22
2016-11-27T05:29:41.014Z,1011.26
2016-11-27T05:30:19.788Z,1011.27
2016-11-27T05:30:58.573Z,1011.29
2016-11-27T05:31:37.353Z,1011.34
2016-11-27T05:32:16.173Z,1011.35
2016-11-27T05:32:54.946Z,1011.35
2016-11-27T05:33:33.723Z,1011.4
2016-11-27T05:34:12.503Z,1011.4
2016-11-27T05:34:51.279Z,1011.39
2016-11-27T05:35:30.050Z,1011.36
2016-11-27T05:36:08.842Z,1011.32
2016-11-27T05:36:47.614Z,1011.31
2016-11-27T05:37:26.395Z,1011.29
2016-11-27T05:38:05.179Z,1011.32
2016-11-27T05:38:43.957Z,1011.35
2016-11-27T05:39:22.729Z,1011.4
2016-11-27T05:40:01.507Z,1011.42
2016-11-27T05:40:40.283Z,1011.47
2016-11-27T05:41:19.058Z,1011.43
2016-11-27T05:41:57.842Z,1011.45
2016-11-27T05:42:36.621Z,1011.44
2016-11-27T05:43:15.396Z,1011.43
2016-11-27T05:43:54.172Z,1011.42
2016-11-27T05:44:32.946Z,1011.42
2016-11-27T05:45:11.724Z,1011.45
2016-11-27T05:45:50.500Z,1011.46
2016-11-27T05:46:29.276Z,1011.46
2016-11-27T05:47:08.047Z,1011.47
2016-11-27T05:47:46.824Z,1011.48
2016-11-27T05:48:25.607Z,1011.5
2016-11-27T05:49:04.384Z,1011.48
2016-11-27T05:49:43.196Z,1011.47
2016-11-27T05:50:21.968Z,1011.52
2016-11-27T05:51:00.745Z,1011.5
2016-11-27T05:51:39.528Z,1011.55
2016-11-27T05:52:18.307Z,1011.57
2016-11-27T05:52:57.082Z,1011.54
2016-11-27T05:53:35.859Z,1011.54
2016-11-27T05:54:14.642Z,1011.54
2016-11-27T05:54:53.412Z,1011.55
2016-11-27T05:55:32.192Z,1011.52
2016-11-27T05:56:10.971Z,1011.59
2016-11-27T05:56:49.755Z,1011.61
2016-11-27T05:57:28.532Z,1011.63
2016-11-27T05:58:07.323Z,1011.64
2016-11-27T05:58:46.102Z,1011.65
2016-11-27T05:59:24.877Z,1011.71
2016-11-27T06:00:03.653Z,1011.63
2016-11-27T06:00:42.431Z,1011.67
2016-11-27T06:01:21.211Z,1011.68
2016-11-27T06:01:59.985Z,1011.7
2016-11-27T06:02:38.757Z,1011.7
2016-11-27T06:03:17.535Z,1011.67
2016-11-27T06:03:56.312Z,1011.67
2016-11-27T06:04:35.089Z,1011.65
2016-11-27T06:05:13.895Z,1011.62
2016-11-27T06:05:52.673Z,1011.63
2016-11-27T06:06:31.448Z,1011.64
2016-11-27T06:07:10.224Z,1011.67
2016-11-27T06:07:49.001Z,1011.65
2016-11-27T06:08:27.780Z,1011.67
2016-11-27T06:09:06.559Z,1011.67
2016-11-27T06:09:45.342Z,1011.68
2016-11-27T06:10:24.121Z,1011.7
2016-11-27T06:11:02.897Z,1011.66
2016-11-27T06:11:41.674Z,1011.68
2016-11-27T06:12:20.452Z,1011.74
2016-11-27T06:12:59.232Z,1011.73
2016-11-27T06:13:38.130Z,1011.74
2016-11-27T06:14:17.261Z,1011.8
2016-11-27T06:14:56.036Z,1011.83
2016-11-27T06:15:34.822Z,1011.83
2016-11-27T06:16:13.595Z,1011.81
2016-11-27T06:16:52.366Z,1011.81
2016-11-27T06:17:31.145Z,1011.79
2016-11-27T06:18:09.923Z,1011.82
2016-11-27T06:18:48.696Z,1011.84
2016-11-27T06:19:27.468Z,1011.8
2016-11-27T06:20:06.245Z,1011.84
2016-11-27T06:20:45.021Z,1011.85
2016-11-27T06:21:23.797Z,1011.85
2016-11-27T06:22:02.572Z,1011.89
2016-11-27T06:22:41.348Z,1011.9
2016-11-27T06:23:20.122Z,1011.93
2016-11-27T06:23:58.898Z,1011.95
2016-11-27T06:24:37.672Z,1011.93
2016-11-27T06:25:16.445Z,1011.92
2016-11-27T06:25:55.218Z,1011.9
2016-11-27T06:26:34.002Z,1011.92
2016-11-27T06:27:12.781Z,1011.87
2016-11-27T06:27:51.556Z,1011.89
2016-11-27T06:28:30.335Z,1011.86
2016-11-27T06:29:09.109Z,1011.87
2016-11-27T06:29:47.886Z,1011.87
2016-11-27T06:30:26.664Z,1011.86
2016-11-27T06:31:05.436Z,1011.88
2016-11-27T06:31:44.215Z,1011.87
2016-11-27T06:32:22.985Z,1011.86
2016-11-27T06:33:01.763Z,1011.88
2016-11-27T06:33:40.539Z,1011.86
2016-11-27T06:34:19.320Z,1011.93
2016-11-27T06:34:58.091Z,1011.92
2016-11-27T06:35:37.223Z,1011.91
2016-11-27T06:36:16.032Z,1012.01
2016-11-27T06:36:54.811Z,1012.01
2016-11-27T06:37:33.601Z,1011.97
2016-11-27T06:38:12.378Z,1011.98
2016-11-27T06:38:51.175Z,1012.05
2016-11-27T06:39:29.951Z,1012.04
2016-11-27T06:40:08.762Z,1011.99
2016-11-27T06:40:47.536Z,1012
2016-11-27T06:41:26.343Z,1011.97
2016-11-27T06:42:05.121Z,1011.92
2016-11-27T06:42:43.892Z,1011.91
2016-11-27T06:43:22.674Z,1011.92
2016-11-27T06:44:01.475Z,1011.95
2016-11-27T06:44:40.245Z,1011.97
2016-11-27T06:45:19.018Z,1011.94
2016-11-27T06:45:57.796Z,1011.93
2016-11-27T06:46:36.612Z,1011.93
2016-11-27T06:47:15.387Z,1011.92
2016-11-27T06:47:54.159Z,1011.97
2016-11-27T06:48:32.931Z,1012
2016-11-27T06:49:11.707Z,1012.03
2016-11-27T06:49:50.483Z,1012.03
2016-11-27T06:50:29.260Z,1012.03
2016-11-27T06:51:08.072Z,1012.06
2016-11-27T06:51:46.848Z,1012.11
2016-11-27T06:52:25.624Z,1012.04
2016-11-27T06:53:04.402Z,1012.02
2016-11-27T06:53:43.179Z,1012.03
2016-11-27T06:54:21.959Z,1012.02
2016-11-27T06:55:00.735Z,1012.02
2016-11-27T06:55:39.863Z,1012.02
2016-11-27T06:56:18.643Z,1012.03
2016-11-27T06:56:57.415Z,1012.03
2016-11-27T06:57:36.190Z,1012.02
2016-11-27T06:58:14.966Z,1012
2016-11-27T06:58:53.766Z,1012.01
2016-11-27T06:59:32.544Z,1011.99
2016-11-27T07:00:11.317Z,1011.97
2016-11-27T07:00:50.482Z,1011.96
2016-11-27T07:01:29.257Z,1011.96
2016-11-27T07:02:08.036Z,1011.99
2016-11-27T07:02:46.813Z,1011.99
2016-11-27T07:03:25.591Z,1011.98
2016-11-27T07:04:04.369Z,1012
2016-11-27T07:04:43.146Z,1012.05
2016-11-27T07:05:21.927Z,1012.06
2016-11-27T07:06:00.704Z,1012.04
2016-11-27T07:06:39.480Z,1012.1
2016-11-27T07:07:18.610Z,1012.11
2016-11-27T07:07:57.388Z,1012.08
2016-11-27T07:08:36.166Z,1012.12
2016-11-27T07:09:14.946Z,1012.1
2016-11-27T07:09:53.730Z,1012.05
2016-11-27T07:10:32.501Z,1012.08
2016-11-27T07:11:11.293Z,1012.11
2016-11-27T07:11:50.067Z,1012.09
2016-11-27T07:12:28.841Z,1012.12
2016-11-27T07:13:07.625Z,1012.07
2016-11-27T07:13:46.448Z,1012.07
2016-11-27T07:14:25.223Z,1012.03
2016-11-27T07:15:04.007Z,1012.11
2016-11-27T07:15:42.786Z,1012.06
2016-11-27T07:16:21.566Z,1012.07
2016-11-27T07:17:00.347Z,1012.07
2016-11-27T07:17:39.124Z,1012.05
2016-11-27T07:18:17.903Z,1012.06
2016-11-27T07:18:56.684Z,1012.06
2016-11-27T07:19:35.463Z,1012.04
2016-11-27T07:20:14.241Z,1012.1
2016-11-27T07:20:53.019Z,1012.11
2016-11-27T07:21:31.796Z,1012.09
2016-11-27T07:22:10.571Z,1012.12
2016-11-27T07:22:49.353Z,1012.12
2016-11-27T07:23:28.200Z,1012.13
2016-11-27T07:24:06.977Z,1012.19
2016-11-27T07:24:45.757Z,1012.23
2016-11-27T07:25:24.533Z,1012.19
2016-11-27T07:26:03.313Z,1012.25
2016-11-27T07:26:42.098Z,1012.28
2016-11-27T07:27:20.870Z,1012.29
2016-11-27T07:27:59.648Z,1012.29
2016-11-27T07:28:38.456Z,1012.29
2016-11-27T07:29:17.233Z,1012.26
2016-11-27T07:29:56.010Z,1012.24
2016-11-27T07:30:34.788Z,1012.27
2016-11-27T07:31:13.600Z,1012.3
2016-11-27T07:31:52.404Z,1012.27
2016-11-27T07:32:31.182Z,1012.31
2016-11-27T07:33:09.962Z,1012.33
2016-11-27T07:33:48.740Z,1012.34
2016-11-27T07:34:27.520Z,1012.31
2016-11-27T07:35:06.298Z,1012.37
2016-11-27T07:35:45.081Z,1012.35
2016-11-27T07:36:23.865Z,1012.38
2016-11-27T07:37:02.641Z,1012.39
2016-11-27T07:37:41.417Z,1012.4
2016-11-27T07:38:20.194Z,1012.39
2016-11-27T07:38:58.976Z,1012.4
2016-11-27T07:39:37.776Z,1012.39
2016-11-27T07:40:16.584Z,1012.38
2016-11-27T07:40:55.727Z,1012.42
2016-11-27T07:41:34.504Z,1012.41
2016-11-27T07:42:13.279Z,1012.43
2016-11-27T07:42:52.053Z,1012.42
2016-11-27T07:43:30.833Z,1012.47
2016-11-27T07:44:09.610Z,1012.46
2016-11-27T07:44:48.385Z,1012.48
2016-11-27T07:45:27.160Z,1012.51
2016-11-27T07:46:05.937Z,1012.52
2016-11-27T07:46:44.717Z,1012.52
2016-11-27T07:47:23.495Z,1012.49
2016-11-27T07:48:02.626Z,1012.54
2016-11-27T07:48:41.402Z,1012.55
2016-11-27T07:49:20.175Z,1012.56
2016-11-27T07:49:58.948Z,1012.5
2016-11-27T07:50:37.722Z,1012.52
2016-11-27T07:51:16.501Z,1012.52